sensor_id;sensor_type;location;lat;lon;timestamp;pressure;altitude;pressure_sealevel;temperature;humidity
70072;BME280;57434;42.794;23.302;2023-05-07T00:00:14;95872.00;;;8.67;71.72
70072;BME280;57434;42.794;23.302;2023-05-07T00:01:16;95875.47;;;8.86;71.65
70072;BME280;57434;42.794;23.302;2023-05-07T00:02:20;95821.78;;;8.49;71.69
70072;BME280;57434;42.794;23.302;2023-05-07T00:03:22;95873.91;;;8.85;71.67
70072;BME280;57434;42.794;23.302;2023-05-07T00:04:24;95879.50;;;8.85;72.08
70072;BME280;57434;42.794;23.302;2023-05-07T00:05:26;95843.81;;;8.80;72.13
70072;BME280;57434;42.794;23.302;2023-05-07T00:06:28;95857.72;;;8.89;71.95
70072;BME280;57434;42.794;23.302;2023-05-07T00:07:30;95853.50;;;8.94;71.70
70072;BME280;57434;42.794;23.302;2023-05-07T00:08:32;95694.22;;;7.80;71.92
70072;BME280;57434;42.794;23.302;2023-05-07T00:09:34;95710.41;;;8.00;71.74
70072;BME280;57434;42.794;23.302;2023-05-07T00:10:36;95646.84;;;7.62;71.45
70072;BME280;57434;42.794;23.302;2023-05-07T00:11:37;95846.06;;;8.91;71.70
70072;BME280;57434;42.794;23.302;2023-05-07T00:12:40;95693.56;;;7.85;71.71
70072;BME280;57434;42.794;23.302;2023-05-07T00:13:42;95720.75;;;8.08;71.76
70072;BME280;57434;42.794;23.302;2023-05-07T00:14:44;95892.75;;;9.08;71.79
70072;BME280;57434;42.794;23.302;2023-05-07T00:15:45;95853.38;;;8.64;72.52
70072;BME280;57434;42.794;23.302;2023-05-07T00:16:47;95890.00;;;8.99;72.27
70072;BME280;57434;42.794;23.302;2023-05-07T00:17:49;95658.03;;;7.53;72.42
70072;BME280;57434;42.794;23.302;2023-05-07T00:18:51;95709.72;;;7.81;72.37
70072;BME280;57434;42.794;23.302;2023-05-07T00:19:53;95832.31;;;8.54;72.46
70072;BME280;57434;42.794;23.302;2023-05-07T00:20:55;95859.34;;;8.57;72.76
70072;BME280;57434;42.794;23.302;2023-05-07T00:21:57;95893.41;;;8.79;72.72
70072;BME280;57434;42.794;23.302;2023-05-07T00:22:59;95872.81;;;8.59;72.60
70072;BME280;57434;42.794;23.302;2023-05-07T00:24:00;95871.66;;;8.74;72.66
70072;BME280;57434;42.794;23.302;2023-05-07T00:25:03;95845.84;;;8.56;72.64
70072;BME280;57434;42.794;23.302;2023-05-07T00:26:05;95818.69;;;8.47;72.54
70072;BME280;57434;42.794;23.302;2023-05-07T00:27:06;95853.34;;;8.73;72.39
70072;BME280;57434;42.794;23.302;2023-05-07T00:28:08;95701.94;;;6.92;74.99
70072;BME280;57434;42.794;23.302;2023-05-07T00:29:10;95873.47;;;8.21;74.71
70072;BME280;57434;42.794;23.302;2023-05-07T00:30:12;95670.59;;;7.06;73.81
70072;BME280;57434;42.794;23.302;2023-05-07T00:31:14;95874.44;;;8.50;73.73
70072;BME280;57434;42.794;23.302;2023-05-07T00:32:16;95869.09;;;8.62;73.66
70072;BME280;57434;42.794;23.302;2023-05-07T00:33:17;95692.06;;;7.42;73.27
70072;BME280;57434;42.794;23.302;2023-05-07T00:34:19;95872.94;;;8.40;73.36
70072;BME280;57434;42.794;23.302;2023-05-07T00:35:21;95911.16;;;8.67;73.30
70072;BME280;57434;42.794;23.302;2023-05-07T00:36:23;95752.06;;;7.89;73.34
70072;BME280;57434;42.794;23.302;2023-05-07T00:37:24;95674.84;;;7.43;73.07
70072;BME280;57434;42.794;23.302;2023-05-07T00:38:26;95682.31;;;7.37;73.37
70072;BME280;57434;42.794;23.302;2023-05-07T00:39:28;95759.59;;;7.64;73.55
70072;BME280;57434;42.794;23.302;2023-05-07T00:40:30;95726.81;;;7.41;73.63
70072;BME280;57434;42.794;23.302;2023-05-07T00:41:31;95682.16;;;7.23;73.04
70072;BME280;57434;42.794;23.302;2023-05-07T00:42:33;95709.75;;;7.39;73.62
70072;BME280;57434;42.794;23.302;2023-05-07T00:43:35;95664.69;;;7.13;73.52
70072;BME280;57434;42.794;23.302;2023-05-07T00:44:36;95883.19;;;8.34;73.64
70072;BME280;57434;42.794;23.302;2023-05-07T00:45:38;95824.78;;;8.03;73.51
70072;BME280;57434;42.794;23.302;2023-05-07T00:46:40;95850.50;;;8.16;73.58
70072;BME280;57434;42.794;23.302;2023-05-07T00:47:42;95886.81;;;8.26;73.87
70072;BME280;57434;42.794;23.302;2023-05-07T00:48:44;95831.13;;;8.04;73.76
70072;BME280;57434;42.794;23.302;2023-05-07T00:49:46;95689.63;;;7.17;73.71
70072;BME280;57434;42.794;23.302;2023-05-07T00:50:48;95683.00;;;7.05;73.32
70072;BME280;57434;42.794;23.302;2023-05-07T00:51:49;95853.44;;;8.22;73.49
70072;BME280;57434;42.794;23.302;2023-05-07T00:52:51;95821.97;;;8.03;73.52
70072;BME280;57434;42.794;23.302;2023-05-07T00:53:54;95861.19;;;8.27;73.24
70072;BME280;57434;42.794;23.302;2023-05-07T00:54:56;95917.81;;;8.37;73.39
70072;BME280;57434;42.794;23.302;2023-05-07T00:55:58;95738.13;;;7.37;73.27
70072;BME280;57434;42.794;23.302;2023-05-07T00:57:00;95879.41;;;8.13;73.12
70072;BME280;57434;42.794;23.302;2023-05-07T00:58:03;95913.84;;;8.20;73.26
70072;BME280;57434;42.794;23.302;2023-05-07T00:59:05;95681.81;;;6.78;73.18
70072;BME280;57434;42.794;23.302;2023-05-07T01:00:08;95900.97;;;8.13;73.09
70072;BME280;57434;42.794;23.302;2023-05-07T01:01:11;95734.13;;;7.02;73.25
70072;BME280;57434;42.794;23.302;2023-05-07T01:02:13;95697.75;;;6.78;72.85
70072;BME280;57434;42.794;23.302;2023-05-07T01:03:15;95872.69;;;7.69;73.04
70072;BME280;57434;42.794;23.302;2023-05-07T01:04:17;95891.63;;;7.37;73.68
70072;BME280;57434;42.794;23.302;2023-05-07T01:05:20;95731.53;;;6.62;73.39
70072;BME280;57434;42.794;23.302;2023-05-07T01:06:25;95758.78;;;6.58;73.85
70072;BME280;57434;42.794;23.302;2023-05-07T01:07:29;95865.75;;;7.37;73.82
70072;BME280;57434;42.794;23.302;2023-05-07T01:08:32;95859.66;;;7.29;74.10
70072;BME280;57434;42.794;23.302;2023-05-07T01:09:34;95875.94;;;7.31;73.90
70072;BME280;57434;42.794;23.302;2023-05-07T01:10:37;95721.16;;;6.35;73.92
70072;BME280;57434;42.794;23.302;2023-05-07T01:11:39;95692.63;;;6.03;74.18
70072;BME280;57434;42.794;23.302;2023-05-07T01:12:42;95914.59;;;7.32;74.61
70072;BME280;57434;42.794;23.302;2023-05-07T01:13:45;95671.56;;;5.93;74.41
70072;BME280;57434;42.794;23.302;2023-05-07T01:14:47;95832.84;;;7.04;73.62
70072;BME280;57434;42.794;23.302;2023-05-07T01:15:50;95690.63;;;6.04;73.71
70072;BME280;57434;42.794;23.302;2023-05-07T01:16:52;95867.44;;;7.16;74.35
70072;BME280;57434;42.794;23.302;2023-05-07T01:17:55;95823.09;;;6.91;74.35
70072;BME280;57434;42.794;23.302;2023-05-07T01:18:57;95697.59;;;6.18;74.53
70072;BME280;57434;42.794;23.302;2023-05-07T01:19:59;95870.06;;;7.20;74.49
70072;BME280;57434;42.794;23.302;2023-05-07T01:21:01;95913.03;;;7.49;74.42
70072;BME280;57434;42.794;23.302;2023-05-07T01:22:09;95702.25;;;6.21;74.61
70072;BME280;57434;42.794;23.302;2023-05-07T01:23:11;95810.53;;;6.86;74.75
70072;BME280;57434;42.794;23.302;2023-05-07T01:24:14;95874.84;;;7.28;74.74
70072;BME280;57434;42.794;23.302;2023-05-07T01:25:16;95907.00;;;7.33;74.78
70072;BME280;57434;42.794;23.302;2023-05-07T01:26:20;95918.44;;;7.53;74.74
70072;BME280;57434;42.794;23.302;2023-05-07T01:27:22;95718.06;;;6.33;74.90
70072;BME280;57434;42.794;23.302;2023-05-07T01:28:23;95679.00;;;6.14;74.75
70072;BME280;57434;42.794;23.302;2023-05-07T01:29:25;95887.44;;;7.51;75.18
70072;BME280;57434;42.794;23.302;2023-05-07T01:30:27;95750.25;;;6.70;74.88
70072;BME280;57434;42.794;23.302;2023-05-07T01:31:30;95709.72;;;6.60;75.39
70072;BME280;57434;42.794;23.302;2023-05-07T01:32:43;95745.47;;;6.89;75.07
70072;BME280;57434;42.794;23.302;2023-05-07T01:33:48;95890.03;;;7.82;75.78
70072;BME280;57434;42.794;23.302;2023-05-07T01:34:50;95888.97;;;7.61;75.33
70072;BME280;57434;42.794;23.302;2023-05-07T01:35:53;95841.09;;;7.35;76.16
70072;BME280;57434;42.794;23.302;2023-05-07T01:36:56;95693.59;;;6.46;76.66
70072;BME280;57434;42.794;23.302;2023-05-07T01:37:58;95693.59;;;6.46;77.42
70072;BME280;57434;42.794;23.302;2023-05-07T01:39:01;95713.25;;;6.70;77.63
70072;BME280;57434;42.794;23.302;2023-05-07T01:40:03;95696.84;;;6.63;77.76
70072;BME280;57434;42.794;23.302;2023-05-07T01:41:06;95730.75;;;6.79;77.79
70072;BME280;57434;42.794;23.302;2023-05-07T01:42:08;95712.63;;;6.75;78.08
70072;BME280;57434;42.794;23.302;2023-05-07T01:43:10;95913.31;;;7.88;78.04
70072;BME280;57434;42.794;23.302;2023-05-07T01:44:12;95813.63;;;7.25;78.23
70072;BME280;57434;42.794;23.302;2023-05-07T01:45:14;95684.00;;;6.38;78.34
70072;BME280;57434;42.794;23.302;2023-05-07T01:46:17;95860.28;;;7.52;78.51
70072;BME280;57434;42.794;23.302;2023-05-07T01:47:29;95696.66;;;6.39;78.31
70072;BME280;57434;42.794;23.302;2023-05-07T01:48:32;95687.69;;;6.44;77.91
70072;BME280;57434;42.794;23.302;2023-05-07T01:49:34;95874.91;;;7.46;78.05
70072;BME280;57434;42.794;23.302;2023-05-07T01:50:37;95728.88;;;6.76;77.94
70072;BME280;57434;42.794;23.302;2023-05-07T01:51:39;95845.25;;;7.49;77.64
70072;BME280;57434;42.794;23.302;2023-05-07T01:52:41;95851.28;;;7.57;77.87
70072;BME280;57434;42.794;23.302;2023-05-07T01:53:43;95705.66;;;6.70;77.23
70072;BME280;57434;42.794;23.302;2023-05-07T01:54:45;95853.63;;;7.67;77.36
70072;BME280;57434;42.794;23.302;2023-05-07T01:55:46;95899.03;;;7.86;77.51
70072;BME280;57434;42.794;23.302;2023-05-07T01:56:49;95668.97;;;6.54;77.14
70072;BME280;57434;42.794;23.302;2023-05-07T01:57:50;95778.13;;;7.34;77.01
70072;BME280;57434;42.794;23.302;2023-05-07T01:58:52;95830.97;;;7.65;77.34
70072;BME280;57434;42.794;23.302;2023-05-07T01:59:54;95691.88;;;6.76;77.15
70072;BME280;57434;42.794;23.302;2023-05-07T02:00:56;95698.53;;;6.88;77.19
70072;BME280;57434;42.794;23.302;2023-05-07T02:01:58;95861.75;;;7.98;77.40
70072;BME280;57434;42.794;23.302;2023-05-07T02:02:59;95674.97;;;6.70;77.08
70072;BME280;57434;42.794;23.302;2023-05-07T02:04:02;95690.78;;;6.73;77.51
70072;BME280;57434;42.794;23.302;2023-05-07T02:05:04;95718.63;;;7.01;77.60
70072;BME280;57434;42.794;23.302;2023-05-07T02:06:06;95679.97;;;6.57;78.09
70072;BME280;57434;42.794;23.302;2023-05-07T02:07:08;95727.94;;;6.98;77.51
70072;BME280;57434;42.794;23.302;2023-05-07T02:08:10;95872.22;;;7.70;77.59
70072;BME280;57434;42.794;23.302;2023-05-07T02:09:13;95715.56;;;6.80;77.39
70072;BME280;57434;42.794;23.302;2023-05-07T02:10:15;95842.72;;;7.78;77.33
70072;BME280;57434;42.794;23.302;2023-05-07T02:11:16;95904.97;;;7.70;77.56
70072;BME280;57434;42.794;23.302;2023-05-07T02:12:18;95832.69;;;7.54;77.78
70072;BME280;57434;42.794;23.302;2023-05-07T02:13:20;95719.44;;;6.92;77.80
70072;BME280;57434;42.794;23.302;2023-05-07T02:14:22;95844.72;;;7.78;77.71
70072;BME280;57434;42.794;23.302;2023-05-07T02:15:24;95646.06;;;6.50;77.64
70072;BME280;57434;42.794;23.302;2023-05-07T02:16:25;95854.34;;;7.86;77.38
70072;BME280;57434;42.794;23.302;2023-05-07T02:17:27;95652.09;;;6.57;76.97
70072;BME280;57434;42.794;23.302;2023-05-07T02:18:29;95856.56;;;7.73;77.24
70072;BME280;57434;42.794;23.302;2023-05-07T02:19:31;95655.81;;;6.45;77.01
70072;BME280;57434;42.794;23.302;2023-05-07T02:20:33;95670.06;;;6.56;77.38
70072;BME280;57434;42.794;23.302;2023-05-07T02:21:35;95653.47;;;6.43;77.22
70072;BME280;57434;42.794;23.302;2023-05-07T02:22:37;95817.78;;;7.57;77.42
70072;BME280;57434;42.794;23.302;2023-05-07T02:23:38;95817.06;;;7.47;77.46
70072;BME280;57434;42.794;23.302;2023-05-07T02:24:40;95674.69;;;6.50;77.44
70072;BME280;57434;42.794;23.302;2023-05-07T02:25:42;95807.09;;;7.28;77.73
70072;BME280;57434;42.794;23.302;2023-05-07T02:26:44;95672.22;;;6.34;77.90
70072;BME280;57434;42.794;23.302;2023-05-07T02:27:46;95661.22;;;6.21;77.72
70072;BME280;57434;42.794;23.302;2023-05-07T02:28:47;95725.94;;;6.71;77.36
70072;BME280;57434;42.794;23.302;2023-05-07T02:29:49;95840.91;;;7.30;77.49
70072;BME280;57434;42.794;23.302;2023-05-07T02:30:51;95690.50;;;6.53;77.03
70072;BME280;57434;42.794;23.302;2023-05-07T02:31:53;95793.78;;;7.23;76.92
70072;BME280;57434;42.794;23.302;2023-05-07T02:32:54;95762.34;;;6.76;76.80
70072;BME280;57434;42.794;23.302;2023-05-07T02:33:56;95669.00;;;6.35;76.69
70072;BME280;57434;42.794;23.302;2023-05-07T02:34:58;95647.75;;;6.20;76.95
70072;BME280;57434;42.794;23.302;2023-05-07T02:36:07;95669.28;;;6.28;76.60
70072;BME280;57434;42.794;23.302;2023-05-07T02:37:10;95755.38;;;6.81;76.38
70072;BME280;57434;42.794;23.302;2023-05-07T02:38:11;95850.53;;;7.20;76.53
70072;BME280;57434;42.794;23.302;2023-05-07T02:39:13;95707.69;;;6.33;75.66
70072;BME280;57434;42.794;23.302;2023-05-07T02:40:15;95706.88;;;6.05;75.68
70072;BME280;57434;42.794;23.302;2023-05-07T02:41:17;95837.19;;;6.87;76.29
70072;BME280;57434;42.794;23.302;2023-05-07T02:42:19;95894.66;;;6.85;76.39
70072;BME280;57434;42.794;23.302;2023-05-07T02:43:21;95831.25;;;6.67;76.29
70072;BME280;57434;42.794;23.302;2023-05-07T02:44:23;95686.84;;;5.79;76.14
70072;BME280;57434;42.794;23.302;2023-05-07T02:45:25;95688.38;;;5.71;76.02
70072;BME280;57434;42.794;23.302;2023-05-07T02:46:27;95706.34;;;5.79;75.91
70072;BME280;57434;42.794;23.302;2023-05-07T02:47:29;95671.31;;;5.60;75.45
70072;BME280;57434;42.794;23.302;2023-05-07T02:48:31;95668.66;;;5.48;75.35
70072;BME280;57434;42.794;23.302;2023-05-07T02:49:33;95858.38;;;6.57;75.74
70072;BME280;57434;42.794;23.302;2023-05-07T02:50:35;95858.50;;;6.54;75.84
70072;BME280;57434;42.794;23.302;2023-05-07T02:51:37;95825.50;;;6.34;76.13
70072;BME280;57434;42.794;23.302;2023-05-07T02:52:38;95678.41;;;5.12;76.78
70072;BME280;57434;42.794;23.302;2023-05-07T02:53:40;95659.72;;;5.13;76.65
70072;BME280;57434;42.794;23.302;2023-05-07T02:54:42;95880.59;;;6.39;76.52
70072;BME280;57434;42.794;23.302;2023-05-07T02:55:44;95737.78;;;5.58;76.60
70072;BME280;57434;42.794;23.302;2023-05-07T02:56:45;95693.66;;;5.38;76.41
70072;BME280;57434;42.794;23.302;2023-05-07T02:57:47;95665.78;;;5.20;76.64
70072;BME280;57434;42.794;23.302;2023-05-07T02:58:49;95702.72;;;5.30;76.77
70072;BME280;57434;42.794;23.302;2023-05-07T02:59:51;95693.06;;;5.43;76.46
70072;BME280;57434;42.794;23.302;2023-05-07T03:00:53;95871.91;;;6.28;77.79
70072;BME280;57434;42.794;23.302;2023-05-07T03:01:55;95705.19;;;5.59;77.63
70072;BME280;57434;42.794;23.302;2023-05-07T03:02:57;95686.78;;;5.52;77.54
70072;BME280;57434;42.794;23.302;2023-05-07T03:03:59;95791.06;;;6.19;77.80
70072;BME280;57434;42.794;23.302;2023-05-07T03:05:01;95700.88;;;5.67;77.59
70072;BME280;57434;42.794;23.302;2023-05-07T03:06:03;95695.31;;;5.67;77.74
70072;BME280;57434;42.794;23.302;2023-05-07T03:07:05;95693.31;;;5.67;78.01
70072;BME280;57434;42.794;23.302;2023-05-07T03:08:07;95858.69;;;6.59;78.16
70072;BME280;57434;42.794;23.302;2023-05-07T03:09:09;95713.84;;;5.61;78.15
70072;BME280;57434;42.794;23.302;2023-05-07T03:10:11;95860.47;;;6.35;77.93
70072;BME280;57434;42.794;23.302;2023-05-07T03:11:13;95857.94;;;6.19;77.77
70072;BME280;57434;42.794;23.302;2023-05-07T03:12:15;95707.31;;;5.15;77.38
70072;BME280;57434;42.794;23.302;2023-05-07T03:13:17;95784.31;;;5.49;77.09
70072;BME280;57434;42.794;23.302;2023-05-07T03:14:19;95677.38;;;4.75;76.92
70072;BME280;57434;42.794;23.302;2023-05-07T03:15:21;95829.78;;;5.55;76.69
70072;BME280;57434;42.794;23.302;2023-05-07T03:16:23;95665.69;;;4.36;77.07
70072;BME280;57434;42.794;23.302;2023-05-07T03:17:25;95801.84;;;5.36;77.59
70072;BME280;57434;42.794;23.302;2023-05-07T03:18:27;95852.09;;;5.64;78.11
70072;BME280;57434;42.794;23.302;2023-05-07T03:19:29;95720.63;;;4.76;78.15
70072;BME280;57434;42.794;23.302;2023-05-07T03:20:31;95914.72;;;5.90;78.70
70072;BME280;57434;42.794;23.302;2023-05-07T03:21:33;95848.41;;;5.67;78.71
70072;BME280;57434;42.794;23.302;2023-05-07T03:22:35;95746.31;;;5.02;79.04
70072;BME280;57434;42.794;23.302;2023-05-07T03:23:37;95874.13;;;6.02;78.76
70072;BME280;57434;42.794;23.302;2023-05-07T03:24:39;95866.75;;;5.86;78.23
70072;BME280;57434;42.794;23.302;2023-05-07T03:25:41;95891.63;;;6.11;77.93
70072;BME280;57434;42.794;23.302;2023-05-07T03:26:43;95709.22;;;4.96;77.26
70072;BME280;57434;42.794;23.302;2023-05-07T03:27:44;95708.56;;;4.92;77.08
70072;BME280;57434;42.794;23.302;2023-05-07T03:28:46;95735.84;;;5.06;77.22
70072;BME280;57434;42.794;23.302;2023-05-07T03:29:48;95663.00;;;4.67;77.30
70072;BME280;57434;42.794;23.302;2023-05-07T03:30:50;95903.59;;;6.21;77.30
70072;BME280;57434;42.794;23.302;2023-05-07T03:31:52;95877.56;;;6.15;77.32
70072;BME280;57434;42.794;23.302;2023-05-07T03:32:54;95836.28;;;5.83;77.52
70072;BME280;57434;42.794;23.302;2023-05-07T03:33:57;95716.69;;;5.08;77.59
70072;BME280;57434;42.794;23.302;2023-05-07T03:34:59;95701.97;;;4.98;77.64
70072;BME280;57434;42.794;23.302;2023-05-07T03:36:01;95897.63;;;6.32;77.92
70072;BME280;57434;42.794;23.302;2023-05-07T03:37:03;95714.75;;;5.18;77.63
70072;BME280;57434;42.794;23.302;2023-05-07T03:38:05;95745.47;;;5.45;77.81
70072;BME280;57434;42.794;23.302;2023-05-07T03:39:06;95710.00;;;5.27;77.68
70072;BME280;57434;42.794;23.302;2023-05-07T03:40:09;95719.47;;;5.39;77.42
70072;BME280;57434;42.794;23.302;2023-05-07T03:41:11;95886.38;;;6.54;77.75
70072;BME280;57434;42.794;23.302;2023-05-07T03:42:14;95842.50;;;6.27;77.92
70072;BME280;57434;42.794;23.302;2023-05-07T03:43:16;95743.53;;;5.55;77.93
70072;BME280;57434;42.794;23.302;2023-05-07T03:44:18;95699.94;;;5.30;78.11
70072;BME280;57434;42.794;23.302;2023-05-07T03:45:20;95706.53;;;5.45;78.13
70072;BME280;57434;42.794;23.302;2023-05-07T03:46:22;95727.38;;;5.40;78.78
70072;BME280;57434;42.794;23.302;2023-05-07T03:47:24;95912.88;;;6.58;78.52
70072;BME280;57434;42.794;23.302;2023-05-07T03:48:26;95722.31;;;5.57;78.36
70072;BME280;57434;42.794;23.302;2023-05-07T03:49:28;95877.56;;;6.55;78.36
70072;BME280;57434;42.794;23.302;2023-05-07T03:50:30;95888.06;;;6.51;78.25
70072;BME280;57434;42.794;23.302;2023-05-07T03:51:31;95746.97;;;5.68;78.18
70072;BME280;57434;42.794;23.302;2023-05-07T03:52:33;95719.78;;;5.72;77.96
70072;BME280;57434;42.794;23.302;2023-05-07T03:53:35;95918.72;;;6.91;77.85
70072;BME280;57434;42.794;23.302;2023-05-07T03:54:37;95721.00;;;5.71;77.48
70072;BME280;57434;42.794;23.302;2023-05-07T03:55:39;95908.72;;;6.63;77.19
70072;BME280;57434;42.794;23.302;2023-05-07T03:56:41;95899.09;;;6.55;77.36
70072;BME280;57434;42.794;23.302;2023-05-07T03:57:42;95903.16;;;6.72;77.50
70072;BME280;57434;42.794;23.302;2023-05-07T03:58:45;95730.59;;;5.39;77.74
70072;BME280;57434;42.794;23.302;2023-05-07T03:59:47;95914.72;;;6.52;78.18
70072;BME280;57434;42.794;23.302;2023-05-07T04:00:49;95745.41;;;5.67;78.18
70072;BME280;57434;42.794;23.302;2023-05-07T04:01:51;95917.72;;;6.76;78.56
70072;BME280;57434;42.794;23.302;2023-05-07T04:02:52;95780.88;;;5.85;78.97
70072;BME280;57434;42.794;23.302;2023-05-07T04:03:55;95944.56;;;6.82;78.88
70072;BME280;57434;42.794;23.302;2023-05-07T04:04:58;95904.38;;;6.62;79.44
70072;BME280;57434;42.794;23.302;2023-05-07T04:06:00;95723.53;;;5.47;79.44
70072;BME280;57434;42.794;23.302;2023-05-07T04:07:01;95939.47;;;6.90;79.53
70072;BME280;57434;42.794;23.302;2023-05-07T04:08:03;95739.75;;;5.79;79.50
70072;BME280;57434;42.794;23.302;2023-05-07T04:09:05;95708.91;;;5.65;79.36
70072;BME280;57434;42.794;23.302;2023-05-07T04:10:07;95885.53;;;6.84;79.48
70072;BME280;57434;42.794;23.302;2023-05-07T04:11:10;95884.09;;;6.70;79.67
70072;BME280;57434;42.794;23.302;2023-05-07T04:12:12;95949.38;;;7.00;79.92
70072;BME280;57434;42.794;23.302;2023-05-07T04:13:13;95934.81;;;6.87;79.94
70072;BME280;57434;42.794;23.302;2023-05-07T04:14:15;95759.44;;;5.94;80.12
70072;BME280;57434;42.794;23.302;2023-05-07T04:15:17;95894.06;;;6.99;80.18
70072;BME280;57434;42.794;23.302;2023-05-07T04:16:19;95768.81;;;6.28;79.76
70072;BME280;57434;42.794;23.302;2023-05-07T04:17:21;95926.16;;;7.22;80.24
70072;BME280;57434;42.794;23.302;2023-05-07T04:18:23;95912.38;;;7.27;79.89
70072;BME280;57434;42.794;23.302;2023-05-07T04:19:25;95745.56;;;6.22;79.76
70072;BME280;57434;42.794;23.302;2023-05-07T04:20:27;95773.19;;;6.38;79.53
70072;BME280;57434;42.794;23.302;2023-05-07T04:21:29;95931.63;;;7.53;79.62
70072;BME280;57434;42.794;23.302;2023-05-07T04:22:30;95940.31;;;7.55;79.53
70072;BME280;57434;42.794;23.302;2023-05-07T04:23:32;95820.28;;;7.00;79.37
70072;BME280;57434;42.794;23.302;2023-05-07T04:24:34;95740.97;;;6.55;79.16
70072;BME280;57434;42.794;23.302;2023-05-07T04:25:36;95954.13;;;7.76;79.36
70072;BME280;57434;42.794;23.302;2023-05-07T04:26:38;95947.44;;;7.92;78.94
70072;BME280;57434;42.794;23.302;2023-05-07T04:27:39;95952.25;;;7.82;78.82
70072;BME280;57434;42.794;23.302;2023-05-07T04:28:41;95777.69;;;6.90;78.89
70072;BME280;57434;42.794;23.302;2023-05-07T04:29:43;95931.63;;;7.89;79.02
70072;BME280;57434;42.794;23.302;2023-05-07T04:30:45;95788.84;;;6.90;78.79
70072;BME280;57434;42.794;23.302;2023-05-07T04:31:47;95934.91;;;7.69;79.51
70072;BME280;57434;42.794;23.302;2023-05-07T04:32:49;95946.50;;;7.86;79.43
70072;BME280;57434;42.794;23.302;2023-05-07T04:33:50;95779.25;;;6.91;79.30
70072;BME280;57434;42.794;23.302;2023-05-07T04:34:52;95914.53;;;7.87;79.61
70072;BME280;57434;42.794;23.302;2023-05-07T04:35:54;95762.34;;;6.95;79.21
70072;BME280;57434;42.794;23.302;2023-05-07T04:36:58;95948.00;;;8.24;79.27
70072;BME280;57434;42.794;23.302;2023-05-07T04:38:00;95949.88;;;8.18;79.23
70072;BME280;57434;42.794;23.302;2023-05-07T04:39:02;95938.69;;;8.18;79.24
70072;BME280;57434;42.794;23.302;2023-05-07T04:40:04;95831.13;;;7.62;79.05
70072;BME280;57434;42.794;23.302;2023-05-07T04:41:08;95804.81;;;7.44;79.02
70072;BME280;57434;42.794;23.302;2023-05-07T04:42:14;95883.03;;;7.96;79.21
70072;BME280;57434;42.794;23.302;2023-05-07T04:43:16;95746.84;;;7.12;79.47
70072;BME280;57434;42.794;23.302;2023-05-07T04:44:18;95947.78;;;8.45;79.55
70072;BME280;57434;42.794;23.302;2023-05-07T04:45:21;95916.31;;;8.27;79.73
70072;BME280;57434;42.794;23.302;2023-05-07T04:46:23;95955.41;;;8.36;79.75
70072;BME280;57434;42.794;23.302;2023-05-07T04:47:24;95787.75;;;7.42;79.26
70072;BME280;57434;42.794;23.302;2023-05-07T04:48:26;95780.63;;;7.41;79.49
70072;BME280;57434;42.794;23.302;2023-05-07T04:49:28;95779.78;;;7.59;79.69
70072;BME280;57434;42.794;23.302;2023-05-07T04:50:30;95774.06;;;7.54;79.46
70072;BME280;57434;42.794;23.302;2023-05-07T04:51:32;95771.25;;;7.63;79.41
70072;BME280;57434;42.794;23.302;2023-05-07T04:52:34;95912.59;;;8.63;79.32
70072;BME280;57434;42.794;23.302;2023-05-07T04:53:37;95907.94;;;8.60;79.13
70072;BME280;57434;42.794;23.302;2023-05-07T04:54:39;95793.47;;;7.99;79.25
70072;BME280;57434;42.794;23.302;2023-05-07T04:55:41;95894.38;;;8.67;79.19
70072;BME280;57434;42.794;23.302;2023-05-07T04:56:43;95976.94;;;8.96;78.91
70072;BME280;57434;42.794;23.302;2023-05-07T04:57:45;95932.19;;;8.87;79.09
70072;BME280;57434;42.794;23.302;2023-05-07T04:58:46;95769.72;;;7.95;79.20
70072;BME280;57434;42.794;23.302;2023-05-07T04:59:48;95934.66;;;8.94;79.19
70072;BME280;57434;42.794;23.302;2023-05-07T05:00:50;95945.25;;;9.13;79.76
70072;BME280;57434;42.794;23.302;2023-05-07T05:01:52;95953.88;;;9.34;79.59
70072;BME280;57434;42.794;23.302;2023-05-07T05:02:54;95971.78;;;9.36;79.14
70072;BME280;57434;42.794;23.302;2023-05-07T05:03:56;95939.34;;;9.21;79.06
70072;BME280;57434;42.794;23.302;2023-05-07T05:04:58;95946.41;;;9.07;80.08
70072;BME280;57434;42.794;23.302;2023-05-07T05:06:00;95960.72;;;9.09;80.47
70072;BME280;57434;42.794;23.302;2023-05-07T05:07:02;95814.34;;;8.46;80.35
70072;BME280;57434;42.794;23.302;2023-05-07T05:08:03;95955.53;;;9.40;79.89
70072;BME280;57434;42.794;23.302;2023-05-07T05:09:06;95803.81;;;8.65;79.77
70072;BME280;57434;42.794;23.302;2023-05-07T05:10:08;95863.75;;;8.97;79.63
70072;BME280;57434;42.794;23.302;2023-05-07T05:11:10;95959.59;;;9.63;79.69
70072;BME280;57434;42.794;23.302;2023-05-07T05:12:12;95774.59;;;8.66;79.42
70072;BME280;57434;42.794;23.302;2023-05-07T05:13:13;95907.91;;;9.64;79.47
70072;BME280;57434;42.794;23.302;2023-05-07T05:14:15;95932.41;;;9.93;79.17
70072;BME280;57434;42.794;23.302;2023-05-07T05:15:17;95837.84;;;9.35;78.83
70072;BME280;57434;42.794;23.302;2023-05-07T05:16:19;95947.97;;;10.24;78.62
70072;BME280;57434;42.794;23.302;2023-05-07T05:17:21;95778.56;;;9.12;78.86
70072;BME280;57434;42.794;23.302;2023-05-07T05:18:23;95931.56;;;10.16;79.40
70072;BME280;57434;42.794;23.302;2023-05-07T05:19:25;95950.69;;;10.33;79.23
70072;BME280;57434;42.794;23.302;2023-05-07T05:20:27;95770.25;;;9.27;78.75
70072;BME280;57434;42.794;23.302;2023-05-07T05:21:29;95954.94;;;10.58;79.01
70072;BME280;57434;42.794;23.302;2023-05-07T05:22:31;95765.81;;;9.35;78.86
70072;BME280;57434;42.794;23.302;2023-05-07T05:23:33;95953.75;;;10.64;79.05
70072;BME280;57434;42.794;23.302;2023-05-07T05:24:34;95780.69;;;9.56;79.18
70072;BME280;57434;42.794;23.302;2023-05-07T05:25:36;95789.66;;;9.75;79.00
70072;BME280;57434;42.794;23.302;2023-05-07T05:26:38;95954.03;;;10.81;78.68
70072;BME280;57434;42.794;23.302;2023-05-07T05:27:40;95824.31;;;10.22;78.61
70072;BME280;57434;42.794;23.302;2023-05-07T05:28:42;95817.72;;;10.25;78.11